Natascia Meneghini

TREVISATLETICA
13-04-1991


Informazioni sul tesseramento aggiornate al 2020


Condividi con
Seguici su:


400 metri

Anno Data Tipo Cr. Cat. Piazz. Prestaz. Vento Città  
201610/01IESF1 se- 2 59.60Padova
201518/01IESF2 se- 1 1:01.62Padova
 

800 metri

Anno Data Tipo Cr. Cat. Piazz. Prestaz. Vento Città  
201630/01IESF2 se- 1 2:07.08Padova
201501/07PESF5 su- 1 2:09.14Nembro
201810/07PESF2 se- 1 2:09.22Trento
201517/05PESF2 se- 2 2:09.23Gavardo
201815/06PESF5 se- 2 2:09.29Conegliano
201507/06PESF3 se- 1 2:09.51Rovigo
201829/04PESF1 se- 1 2:09.75San Biagio Di Callalta
201730/06PESF4 ba- 2 2:10.47Trieste
201827/05PESF1 se- 1 2:10.60Bussolengo
201525/01IESF5 se- 1 2:10.75Padova
201523/05PESF4 se- 3 2:10.86Fidenza
201721/05PESF2 se- 1 2:10.97San Biagio Di Callalta
201522/02IESF2 se- 1 2:11.03Padova
201510/05PESF3 se- 1 2:11.03Marcon
201517/06PESF2 su- 1 2:11.27Gorizia
201806/05PESF2 se- 1 2:11.62Caorle
201807/09PESF6 ba- 2 2:11.74Pescara
201824/06PESF3 su- 1 2:11.76Bergamo
201707/05PESF5 se- 1 2:11.90Bussolengo
201718/07PESF3 se- 1 2:11.91Trento
201605/06PESF2 se- 1 2:12.08Bovolone
201618/06PESF7 se- 2 2:12.26Nembro
201912/05PESF3 se- 1 2:12.45San Biagio Di Callalta
201527/09PESF1 se- 2 2:12.66Rovereto
201623/07PESF4 se- 1 2:12.76Gorizia
201624/06PESF7 ba- 2 2:12.96Rieti
201525/04PESF1 se- 1 2:13.04Padova
201808/07PESF1 se- 1 2:13.28Arzignano
201925/04PESF2 se- 1 2:13.38Padova
201629/05PESF10 se- 3 2:13.97Gavardo
201914/07PESF1 su- 1 2:14.48Vittorio Veneto
201714/01IESF3 se- 1 2:15.17Padova
201725/04PESF1 su- 1 2:15.23Padova
201403/08PESF1 se- 2 2:15.44Pergine Valsugana
201418/05PESF2 se- 2 2:15.78Gavardo
201608/05PESF5 se- 1 2:15.81Vicenza
201724/09PESF1 se- 2 2:15.86Arzignano
201616/01IESF2 se- 1 2:15.95Padova
201424/05PESF6 se- 2 2:16.79Milano
201411/05PESF5 se- 1 2:16.94Vicenza
201315/06PEPF9 su- 1 2:17.47Rieti
201408/01IESF4 su- 1 2:18.55Padova
201308/06PEPF4 se- 2 2:18.85Caprino Veronese
201220/05PEPF3 se- 2 2:19.21Vicenza
201319/05PEPF3 se- 1 2:19.79Gavardo
201408/02IESF1 se- 2 2:20.31Padova
201326/05PEPF11 se- 2 2:20.82Cassino
201307/09PEPF2 su- 1 2:21.28Rovigo
201312/05PEPF7 se- 1 2:21.42Marcon
201215/04PEPF2 su- 1 2:21.82Vicenza
201304/05PEPF1 su- 1 2:22.36Scorze
201314/04PEPF7 se- 3 2:22.93Vicenza
201225/04PEPF3 se- 1 2:23.21Conegliano
201211/09PEPF5 su- 1 2:23.47Marcon
200912/07PEJF5 su- 1 2:24.29Mestre
200917/06PEJF8 su- 1 2:27.62Mogliano Veneto
200825/04PEAF3 su- 1 2:28.39Conegliano
200829/07PEAF8 se- 4 2:32.88Trento
 

1000 metri

Anno Data Tipo Cr. Cat. Piazz. Prestaz. Vento Città  
201321/04PEPF2 se- 1 3:05.94Treviso
201229/09PEPF2 su- 1 3:06.08Mestre
201010/04PMJF2 su- 1 3:09.3Noale
201025/09PEJF3 su- 1 3:09.98Mestre
200911/09PMJF2 su- 1 3:10.6Verona
200808/10PEAF3 su- 1 3:10.85Mestre
200829/03PMAF3 su- 1 3:15.7Noale
200917/10PEJF2 su- 1 3:17.56Mestre San Giuliano
200819/01IEAF3 su- 1 3:21.48Padova
 

1500 metri

Anno Data Tipo Cr. Cat. Piazz. Prestaz. Vento Città  
201826/05PESF1 se- 1 4:22.93Bussolengo
201809/09PESF5 se- 2 4:23.50Pescara
201823/06PESF3 su- 1 4:23.93Bergamo
201521/02IESF4 su- 1 4:24.57Padova
201808/06PESF3 se- 2 4:25.34Ponzano Veneto
201702/07PESF6 se- 2 4:25.94Trieste
201711/07PESF5 se- 1 4:26.49Trento
201901/06PESF1 se- 1 4:27.10Vicenza
201514/07PESF7 se- 1 4:28.40Trento
201617/01IESF2 se- 1 4:28.58Padova
201501/02IESF1 se- 1 4:28.69Padova
201522/05PESF2 su- 1 4:28.82Fidenza
201701/06PESF1 se- 1 4:28.94Ponzano Veneto
201919/07PESF2 su- 1 4:29.87Vicenza
201509/05PESF2 se- 1 4:30.47Marcon
201911/05PESF3 se- 1 4:30.96San Biagio Di Callalta
201702/06PESF1 su- 1 4:31.71Murano
201528/08PESF5 se- 1 4:31.90Cles
201706/05PESF5 se- 1 4:32.33Bussolengo
201626/06PESF7 su- 1 4:32.67Rieti
201526/07PESF9 se- 2 4:33.39Torino
201722/01IESF6 se- 1 4:33.66Padova
201625/08PESF6 se- 1 4:35.12Cles
201428/06PESF2 su- 1 4:36.16Bassano Del Grappa
201929/06PESF1 su- 1 4:36.28Murano
201410/05PESF3 se- 1 4:36.39Vicenza
201913/07PESF1 su- 1 4:36.45Vittorio Veneto
201423/05PESF6 su- 1 4:37.02Milano
201402/02IESF3 su- 1 4:37.19Padova
201431/05PESF2 su- 1 4:37.34Caprino Veronese
201420/07PESF3 se- 1 4:37.58Rovereto
201621/05PESF2 se- 1 4:38.36Agordo
201603/09PESF7 se- 2 4:38.51Brugnera
201817/02IESF8 se- 2 4:38.81Ancona
201316/06PEPF9 su- 1 4:39.47Rieti
201421/06PESF7 se- 2 4:40.38Villafranca Di Verona
201718/02IESF11 su- 1 4:41.13Ancona
201416/02IESF3 su- 1 4:42.46Padova
201401/05PESF1 su- 1 4:42.98Padova
201625/09PESF1 su- 1 4:43.47Conegliano
201314/09PEPF5 su- 1 4:43.66Verona
201219/05PEPF5 se- 2 4:44.95Vicenza
201928/07PESF10 se- 2 4:45.18Bressanone
201217/06PEPF8 su- 1 4:46.12Misano Adriatico
201301/05PMPF4 su- 1 4:46.5Padova
201318/10PMPF1 su- 1 4:47.3Murano
201419/01IESF7 se- 1 4:49.66Padova
201325/05PEPF10 su- 1 4:49.91Cassino
201206/05PEPF2 su- 1 4:52.16Marcon
201201/09PEPF3 su- 1 4:52.82Rovigo
200904/06PEJF2 su- 1 4:52.92Piombino Dese
200911/07PEJF1 su- 1 4:54.27Mestre
201311/05PEPF7 se- 1 4:54.61Marcon
200930/05PEJF5 su- 1 4:55.77Mogliano Veneto
200910/05PEJF11 su- 1 4:56.07Imperia
200902/05PEJF6 su- 1 4:57.96Scorze
200914/06PEJF9 se- 1 4:58.52Rieti
201222/04PEPF6 su- 1 4:59.13Treviso
200806/09PEAF13 su- 1 5:00.06Brugnera
200828/06PMAF11 se- 1 5:01.3Villafranca Di Verona
200824/05PEAF2 su- 1 5:01.78Abano Terme
201307/04PEPF6 su- 1 5:02.10Marcon
200801/05PEAF10 su- 1 5:02.15Padova
200919/08PMJF7 su- 1 5:02.9Cortina
200928/03PMJF3 su- 1 5:03.0 Noale
200805/06PEAF6 se- 1 5:04.09Piombino Dese
200905/09PEJF10 se- 1 5:04.75Brugnera
200917/01IEJF3 su- 1 5:05.73Padova
200826/04PEAF3 se- 1 5:07.00Piombino Dese
200822/07PEAF8 se- 2 5:07.77Trento
201020/08PMJF2 se- 1 5:09.4Cortina D'ampezzo
200820/09PEAF4 su- 1 5:11.52Bovolone
200823/08PEAF11 su- 1 5:12.08Cortina
 

3000 metri

Anno Data Tipo Cr. Cat. Piazz. Prestaz. Vento Città  
201205/05PEPF5 su- 1 10:36.82Scorze
201008/05PEJF6 su- 1 10:39.38Scorze
200923/06PEJF14 se- 1 10:42.48Ferrara
200919/04PEJF4 su- 1 10:45.03Vicenza
200906/06PEJF10 su- 1 10:46.19Bussolengo
201017/04PEJF3 se- 1 10:51.20Piombino Dese
201001/05PEJF3 su- 1 10:54.38Voltabarozzo
201128/05PEPF6 su- 1 10:58.12Noale
200821/09PEAF3 su- 1 10:59.39Bovolone
200805/10PEAF8 se- 1 11:02.64Rieti
200805/08PEAF2 se- 2 11:02.84Trento
200818/06PMAF4 su- 1 11:09.2Mogliano Veneto
200825/05PEAF2 su- 1 11:09.66Abano Terme
200924/01IEJF5 su- 1 11:10.82Padova
200830/08PEAF9 se- 1 11:16.93Trento
200812/04PEAF7 se- 1 11:19.69Vicenza
200923/05PEJF12 su- 1 11:27.30Gavardo
 

5000 metri

Anno Data Tipo Cr. Cat. Piazz. Prestaz. Vento Città  
201120/05PEPF2 su- 1 19:07.58Mogliano Veneto
201101/05PEPF1 su- 1 19:14.63Montebelluna
201019/06PEJF13 su- 1 19:23.87Pescara
201104/06PEPF5 su- 1 19:30.04Feltre
201017/09PEJF5 su- 1 19:31.65Marcon
 

Corsa strada Km 10

Anno Data Tipo Cr. Cat. Piazz. Prestaz. Vento Città  
201012/09SMJF3 su- 1 42:28Pordenone
 

corsa km 5 strada

Anno Data Tipo Cr. Cat. Piazz. Prestaz. Vento Città  
201901/05SMSF11 su- 1 17:42Oderzo
201921/06SMSF6 su- 1 18:08Treviso
 

MARATONINA B

Anno Data Tipo Cr. Cat. Piazz. Prestaz. Vento Città  
201402/03SMSF47 su- 1 1h29:12Roma
 

Attenzione: le schede-atleti sono composte automaticamente sulla base dei dati inseriti all'interno degli archivi nazionali aggiornati dal 2005 al 04-12-2020. Se un risultato non compare nelle graduatorie, quindi, è segno che lo stesso, con ogni probabilità, non è stato ancora inserito. Il processo di inserimento è di competenza dei Comitati Regionali sul cui territorio ha avuto luogo la manifestazione: eventuali segnalazioni per errori od omissioni, vanno dunque indirizzate agli stessi (potete utilizzare l'elenco con relativi contatti). Considerato però che solo le principali manifestazioni nazionali sono oggetto di inserimenti "in diretta" (sul posto di gara), mentre le altre, incluse le internazionali in programma all'estero, vengono inserite in tempi successivi, è opportuno attendere un ragionevole lasso di tempo prima di procedere ad una segnalazione.

Stickers


Non ventosi

GaraTipoPrestazioneVentoAnnoCittà
400 metriIndoor 59.602016Padova
800 metriIndoor 2:07.082016Padova
800 metriPista 2:09.142015Nembro
1000 metriPista 3:05.942013Treviso
1000 metriIndoor 3:21.482008Padova
1500 metriPista 4:22.932018Bussolengo
1500 metriIndoor 4:24.572015Padova
3000 metriPista 10:36.822012Scorze
3000 metriIndoor 11:10.822009Padova
5000 metriPista 19:07.582011Mogliano Veneto
Corsa strada Km 10Strada 42:282010Pordenone
corsa km 5 stradaStrada 17:422019Oderzo
MARATONINA BStrada 1h29:122014Roma

AnnoTipo mov.CategoriaSocietà
2020RinnovoSeniores FemminileTREVISATLETICA
2019TrasferimentoSeniores FemminileTREVISATLETICA
2018RinnovoSeniores FemminileGA ARISTIDE COIN VENEZIA 1949
2017RinnovoSeniores FemminileGA ARISTIDE COIN VENEZIA 1949
2016RinnovoSeniores FemminileGA ARISTIDE COIN VENEZIA 1949
2015TrasferimentoSeniores FemminileGA ARISTIDE COIN VENEZIA 1949
2014PrestitoSeniores FemminileC.U.S. PADOVA
2013RinnovoPromesse FemminileVENEZIA RUNNERS ATL.MURANO
2012RinnovoPromesse FemminileVENEZIA RUNNERS ATL.MURANO
2011RinnovoPromesse FemminileVENEZIA RUNNERS ATL.MURANO
2010RinnovoJuniores FemminileVENEZIA RUNNERS ATL.MURANO
2009RinnovoJuniores FemminileVENEZIA RUNNERS ATL.MURANO
2008RinnovoAllieveVENEZIA RUNNERS ATL.MURANO
2007NuovoAllieveVENEZIA RUNNERS ATL.MURANO